createdAt,value
2017-10-12T00:01:02.795Z,0
2017-10-12T00:02:24.616Z,0
2017-10-12T00:03:46.418Z,0
2017-10-12T00:05:08.935Z,0
2017-10-12T00:06:31.056Z,0
2017-10-12T00:07:52.892Z,0
2017-10-12T00:09:15.160Z,0
2017-10-12T00:10:37.306Z,0
2017-10-12T00:11:59.772Z,0
2017-10-12T00:13:21.584Z,0
2017-10-12T00:14:43.733Z,0
2017-10-12T00:16:06.365Z,0
2017-10-12T00:17:28.316Z,0
2017-10-12T00:18:50.154Z,0
2017-10-12T00:20:12.299Z,0
2017-10-12T00:21:34.123Z,0
2017-10-12T00:22:56.281Z,0
2017-10-12T00:24:18.430Z,0
2017-10-12T00:25:40.614Z,0
2017-10-12T00:27:02.773Z,0
2017-10-12T00:28:24.597Z,0
2017-10-12T00:29:46.744Z,0
2017-10-12T00:31:08.229Z,0
2017-10-12T00:32:30.720Z,0
2017-10-12T00:33:52.201Z,0
2017-10-12T00:35:14.406Z,0
2017-10-12T00:36:35.896Z,0
2017-10-12T00:37:58.032Z,0
2017-10-12T00:39:20.466Z,0
2017-10-12T00:40:41.945Z,0
2017-10-12T00:42:04.436Z,0
2017-10-12T00:43:25.922Z,0
2017-10-12T00:44:48.055Z,0
2017-10-12T00:46:09.196Z,0
2017-10-12T00:47:31.705Z,0
2017-10-12T00:48:53.518Z,0
2017-10-12T00:50:15.001Z,0
2017-10-12T00:51:36.502Z,0
2017-10-12T00:52:58.727Z,0
2017-10-12T00:54:20.545Z,0
2017-10-12T00:55:42.760Z,0
2017-10-12T00:57:04.586Z,0
2017-10-12T00:58:26.734Z,0
2017-10-12T00:59:48.888Z,0
2017-10-12T01:01:10.362Z,0
2017-10-12T01:02:32.186Z,0
2017-10-12T01:03:53.766Z,0
2017-10-12T01:05:15.676Z,0
2017-10-12T01:06:37.176Z,0
2017-10-12T01:07:59.015Z,0
2017-10-12T01:09:21.555Z,0
2017-10-12T01:10:43.015Z,0
2017-10-12T01:12:05.293Z,0
2017-10-12T01:13:27.781Z,0
2017-10-12T01:14:49.563Z,0
2017-10-12T01:16:11.364Z,0
2017-10-12T01:17:32.521Z,0
2017-10-12T01:18:55.001Z,0
2017-10-12T01:20:17.119Z,0
2017-10-12T01:21:39.263Z,0
2017-10-12T01:23:01.072Z,0
2017-10-12T01:24:22.559Z,0
2017-10-12T01:25:44.686Z,0
2017-10-12T01:27:05.556Z,0
2017-10-12T01:28:27.707Z,0
2017-10-12T01:29:49.192Z,0
2017-10-12T01:31:10.984Z,0
2017-10-12T01:32:33.107Z,0
2017-10-12T01:33:55.545Z,0
2017-10-12T01:35:17.456Z,0
2017-10-12T01:36:39.404Z,0
2017-10-12T01:38:01.209Z,0
2017-10-12T01:39:22.701Z,0
2017-10-12T01:40:45.281Z,0
2017-10-12T01:42:06.784Z,0
2017-10-12T01:43:28.918Z,0
2017-10-12T01:44:50.705Z,0
2017-10-12T01:46:12.832Z,0
2017-10-12T01:47:35.310Z,0
2017-10-12T01:48:56.785Z,0
2017-10-12T01:50:18.584Z,0
2017-10-12T01:51:40.712Z,0
2017-10-12T01:53:02.521Z,0
2017-10-12T01:54:24.029Z,0
2017-10-12T01:55:45.496Z,0
2017-10-12T01:57:07.834Z,0
2017-10-12T01:58:30.130Z,0
2017-10-12T01:59:51.645Z,0
2017-10-12T02:01:13.787Z,0
2017-10-12T02:02:36.264Z,0
2017-10-12T02:03:58.093Z,0
2017-10-12T02:05:19.615Z,0
2017-10-12T02:06:41.410Z,0
2017-10-12T02:08:03.855Z,0
2017-10-12T02:09:25.673Z,0
2017-10-12T02:10:47.852Z,0
2017-10-12T02:12:09.756Z,0
2017-10-12T02:13:32.221Z,0
2017-10-12T02:14:54.372Z,0
2017-10-12T02:16:15.614Z,0
2017-10-12T02:17:36.791Z,0
2017-10-12T02:18:58.923Z,0
2017-10-12T02:20:20.394Z,0
2017-10-12T02:21:41.882Z,0
2017-10-12T02:23:04.002Z,0
2017-10-12T02:24:25.517Z,0
2017-10-12T02:25:47.344Z,0
2017-10-12T02:27:09.483Z,0
2017-10-12T02:28:31.613Z,0
2017-10-12T02:29:53.434Z,0
2017-10-12T02:31:15.911Z,0
2017-10-12T02:32:38.051Z,0
2017-10-12T02:33:59.541Z,0
2017-10-12T02:35:21.342Z,0
2017-10-12T02:36:43.498Z,0
2017-10-12T02:38:05.949Z,0
2017-10-12T02:39:27.768Z,0
2017-10-12T02:40:49.577Z,0
2017-10-12T02:42:11.044Z,0
2017-10-12T02:43:32.562Z,0
2017-10-12T02:44:53.715Z,0
2017-10-12T02:46:15.554Z,0
2017-10-12T02:47:37.740Z,0
2017-10-12T02:49:00.185Z,0
2017-10-12T02:50:22.336Z,0
2017-10-12T02:51:44.469Z,0
2017-10-12T02:53:06.594Z,0
2017-10-12T02:54:28.093Z,0
2017-10-12T02:55:50.608Z,0
2017-10-12T02:57:13.065Z,0
2017-10-12T02:58:34.872Z,0
2017-10-12T02:59:56.335Z,0
2017-10-12T03:01:18.814Z,0
2017-10-12T03:02:40.646Z,0
2017-10-12T03:04:02.175Z,0
2017-10-12T03:05:24.347Z,0
2017-10-12T03:06:46.166Z,0
2017-10-12T03:08:07.813Z,0
2017-10-12T03:09:29.679Z,0
2017-10-12T03:10:51.212Z,0
2017-10-12T03:12:13.356Z,0
2017-10-12T03:13:35.503Z,0
2017-10-12T03:14:57.370Z,0
2017-10-12T03:16:18.865Z,0
2017-10-12T03:17:40.339Z,0
2017-10-12T03:19:01.906Z,0
2017-10-12T03:20:24.140Z,0
2017-10-12T03:21:45.964Z,0
2017-10-12T03:23:08.460Z,0
2017-10-12T03:24:30.266Z,0
2017-10-12T03:25:52.376Z,0
2017-10-12T03:27:14.535Z,0
2017-10-12T03:28:36.640Z,0
2017-10-12T03:29:58.454Z,0
2017-10-12T03:31:20.598Z,0
2017-10-12T03:32:42.164Z,0
2017-10-12T03:34:04.018Z,0
2017-10-12T03:35:25.851Z,0
2017-10-12T03:36:48.464Z,0
2017-10-12T03:38:10.938Z,0
2017-10-12T03:39:33.092Z,0
2017-10-12T03:40:55.227Z,0
2017-10-12T03:42:17.655Z,0
2017-10-12T03:43:39.798Z,0
2017-10-12T03:45:02.270Z,0
2017-10-12T03:46:24.510Z,0
2017-10-12T03:47:45.909Z,0
2017-10-12T03:49:08.068Z,0
2017-10-12T03:50:29.880Z,0
2017-10-12T03:51:51.364Z,0
2017-10-12T03:53:13.871Z,0
2017-10-12T03:54:36.365Z,0
2017-10-12T03:55:58.844Z,0
2017-10-12T03:57:20.649Z,0
2017-10-12T03:58:42.788Z,0
2017-10-12T04:00:05.266Z,0
2017-10-12T04:01:27.794Z,0
2017-10-12T04:02:49.295Z,0
2017-10-12T04:04:10.775Z,0
2017-10-12T04:05:32.978Z,0
2017-10-12T04:06:55.165Z,0
2017-10-12T04:08:17.297Z,0
2017-10-12T04:09:39.555Z,0
2017-10-12T04:11:01.455Z,0
2017-10-12T04:12:22.994Z,0
2017-10-12T04:13:45.125Z,0
2017-10-12T04:15:06.941Z,0
2017-10-12T04:16:28.894Z,0
2017-10-12T04:17:50.066Z,0
2017-10-12T04:19:12.193Z,0
2017-10-12T04:20:34.058Z,0
2017-10-12T04:21:55.857Z,0
2017-10-12T04:23:17.997Z,0
2017-10-12T04:24:39.794Z,0
2017-10-12T04:26:01.588Z,0
2017-10-12T04:27:23.735Z,0
2017-10-12T04:28:45.201Z,0
2017-10-12T04:30:07.000Z,0
2017-10-12T04:31:29.465Z,0
2017-10-12T04:32:51.266Z,0
2017-10-12T04:34:13.752Z,0
2017-10-12T04:35:35.266Z,0
2017-10-12T04:36:56.810Z,0
2017-10-12T04:38:18.963Z,0
2017-10-12T04:39:41.531Z,0
2017-10-12T04:41:03.716Z,0
2017-10-12T04:42:25.844Z,0
2017-10-12T04:43:48.316Z,0
2017-10-12T04:45:09.777Z,0
2017-10-12T04:46:31.899Z,0
2017-10-12T04:47:54.046Z,0
2017-10-12T04:49:15.926Z,0
2017-10-12T04:50:37.799Z,0
2017-10-12T04:51:59.664Z,0
2017-10-12T04:53:21.461Z,0
2017-10-12T04:54:43.033Z,0
2017-10-12T04:56:05.194Z,0
2017-10-12T04:57:27.080Z,0
2017-10-12T04:58:48.833Z,0
2017-10-12T05:00:10.994Z,0
2017-10-12T05:01:32.475Z,0
2017-10-12T05:02:54.922Z,0
2017-10-12T05:04:16.416Z,0
2017-10-12T05:05:38.674Z,0
2017-10-12T05:07:01.267Z,0
2017-10-12T05:08:23.401Z,0
2017-10-12T05:09:45.613Z,0
2017-10-12T05:11:07.740Z,0
2017-10-12T05:12:30.377Z,0
2017-10-12T05:13:51.853Z,0
2017-10-12T05:15:13.972Z,0
2017-10-12T05:16:35.447Z,0
2017-10-12T05:17:56.914Z,0
2017-10-12T05:19:19.046Z,0
2017-10-12T05:20:40.926Z,0
2017-10-12T05:22:02.739Z,0
2017-10-12T05:23:25.285Z,0
2017-10-12T05:24:46.810Z,0
2017-10-12T05:26:08.619Z,0
2017-10-12T05:27:30.745Z,0
2017-10-12T05:28:52.559Z,0
2017-10-12T05:30:15.206Z,0
2017-10-12T05:31:37.689Z,0
2017-10-12T05:32:59.833Z,0
2017-10-12T05:34:21.677Z,0
2017-10-12T05:35:43.508Z,0
2017-10-12T05:37:05.963Z,0
2017-10-12T05:38:27.785Z,0
2017-10-12T05:39:49.598Z,0
2017-10-12T05:41:11.395Z,0
2017-10-12T05:42:32.874Z,0
2017-10-12T05:43:54.675Z,5
2017-10-12T05:45:16.201Z,5
2017-10-12T05:46:38.354Z,5
2017-10-12T05:47:59.830Z,5
2017-10-12T05:49:22.159Z,5
2017-10-12T05:50:44.326Z,5
2017-10-12T05:52:06.149Z,5
2017-10-12T05:53:28.638Z,10
2017-10-12T05:54:50.465Z,10
2017-10-12T05:56:12.604Z,15
2017-10-12T05:57:34.785Z,15
2017-10-12T05:58:56.914Z,20
2017-10-12T06:00:18.413Z,20
2017-10-12T06:01:40.913Z,20
2017-10-12T06:03:03.076Z,20
2017-10-12T06:04:25.255Z,25
2017-10-12T06:05:47.057Z,25
2017-10-12T06:07:08.886Z,25
2017-10-12T06:08:31.008Z,25
2017-10-12T06:09:53.152Z,30
2017-10-12T06:11:15.304Z,35
2017-10-12T06:12:37.125Z,40
2017-10-12T06:13:59.317Z,35
2017-10-12T06:15:21.190Z,35
2017-10-12T06:16:42.995Z,35
2017-10-12T06:18:04.836Z,35
2017-10-12T06:19:27.068Z,35
2017-10-12T06:20:48.617Z,30
2017-10-12T06:22:10.418Z,35
2017-10-12T06:23:32.278Z,40
2017-10-12T06:24:54.184Z,45
2017-10-12T06:26:16.151Z,50
2017-10-12T06:27:38.078Z,60
2017-10-12T06:29:00.224Z,55
2017-10-12T06:30:22.694Z,65
2017-10-12T06:31:44.832Z,65
2017-10-12T06:33:06.671Z,65
2017-10-12T06:34:28.514Z,70
2017-10-12T06:35:50.656Z,70
2017-10-12T06:37:12.827Z,75
2017-10-12T06:38:34.964Z,75
2017-10-12T06:39:57.425Z,85
2017-10-12T06:41:19.712Z,80
2017-10-12T06:42:41.868Z,85
2017-10-12T06:44:04.020Z,90
2017-10-12T06:45:26.298Z,85
2017-10-12T06:46:48.095Z,85
2017-10-12T06:48:09.923Z,100
2017-10-12T06:49:31.774Z,100
2017-10-12T06:50:53.909Z,105
2017-10-12T06:52:16.077Z,155
2017-10-12T06:53:37.925Z,150
2017-10-12T06:55:00.456Z,145
2017-10-12T06:56:22.947Z,130
2017-10-12T06:57:45.558Z,100
2017-10-12T06:59:07.772Z,100
2017-10-12T07:00:30.261Z,150
2017-10-12T07:01:52.760Z,115
2017-10-12T07:03:15.254Z,155
2017-10-12T07:04:37.749Z,150
2017-10-12T07:05:59.567Z,155
2017-10-12T07:07:22.047Z,165
2017-10-12T07:08:43.964Z,150
2017-10-12T07:10:06.540Z,130
2017-10-12T07:11:28.688Z,125
2017-10-12T07:12:50.578Z,115
2017-10-12T07:14:13.057Z,120
2017-10-12T07:15:35.544Z,125
2017-10-12T07:16:57.691Z,120
2017-10-12T07:18:19.530Z,115
2017-10-12T07:19:41.695Z,125
2017-10-12T07:21:03.867Z,130
2017-10-12T07:22:26.015Z,110
2017-10-12T07:23:47.510Z,120
2017-10-12T07:25:10.026Z,120
2017-10-12T07:26:32.192Z,130
2017-10-12T07:27:54.034Z,140
2017-10-12T07:29:16.174Z,145
2017-10-12T07:30:37.751Z,150
2017-10-12T07:31:59.586Z,155
2017-10-12T07:33:22.071Z,155
2017-10-12T07:34:43.879Z,155
2017-10-12T07:36:05.693Z,160
2017-10-12T07:37:27.509Z,160
2017-10-12T07:38:49.650Z,160
2017-10-12T07:40:12.258Z,155
2017-10-12T07:41:34.295Z,160
2017-10-12T07:42:56.758Z,165
2017-10-12T07:44:19.032Z,175
2017-10-12T07:45:40.958Z,175
2017-10-12T07:47:03.114Z,175
2017-10-12T07:48:25.678Z,180
2017-10-12T07:49:47.564Z,180
2017-10-12T07:51:09.701Z,180
2017-10-12T07:52:31.620Z,180
2017-10-12T07:53:54.139Z,175
2017-10-12T07:55:16.935Z,175
2017-10-12T07:56:39.089Z,175
2017-10-12T07:58:00.987Z,160
2017-10-12T07:59:23.150Z,155
2017-10-12T08:00:44.992Z,150
2017-10-12T08:02:06.854Z,140
2017-10-12T08:03:29.101Z,135
2017-10-12T08:04:50.908Z,135
2017-10-12T08:06:13.211Z,135
2017-10-12T08:07:35.406Z,135
2017-10-12T08:08:56.908Z,150
2017-10-12T08:10:19.287Z,150
2017-10-12T08:11:41.777Z,150
2017-10-12T08:13:03.924Z,160
2017-10-12T08:14:26.467Z,165
2017-10-12T08:15:48.439Z,155
2017-10-12T08:17:10.941Z,165
2017-10-12T08:18:32.777Z,165
2017-10-12T08:19:54.276Z,165
2017-10-12T08:21:16.920Z,170
2017-10-12T08:22:38.802Z,175
2017-10-12T08:24:01.412Z,180
2017-10-12T08:25:23.259Z,180
2017-10-12T08:26:45.794Z,185
2017-10-12T08:28:07.811Z,195
2017-10-12T08:29:30.280Z,200
2017-10-12T08:30:52.613Z,175
2017-10-12T08:32:15.173Z,170
2017-10-12T08:33:37.006Z,185
2017-10-12T08:34:58.855Z,170
2017-10-12T08:36:21.040Z,170
2017-10-12T08:37:43.138Z,160
2017-10-12T08:39:05.321Z,160
2017-10-12T08:40:27.147Z,160
2017-10-12T08:41:48.996Z,160
2017-10-12T08:43:11.582Z,160
2017-10-12T08:44:33.726Z,180
2017-10-12T08:45:55.549Z,160
2017-10-12T08:47:17.450Z,155
2017-10-12T08:48:39.952Z,145
2017-10-12T08:50:02.093Z,145
2017-10-12T08:51:24.280Z,145
2017-10-12T08:52:46.432Z,140
2017-10-12T08:54:07.947Z,140
2017-10-12T08:55:30.192Z,155
2017-10-12T08:56:52.705Z,165
2017-10-12T08:58:15.182Z,145
2017-10-12T08:59:37.357Z,150
2017-10-12T09:00:59.204Z,145
2017-10-12T09:02:21.475Z,150
2017-10-12T09:03:43.942Z,155
2017-10-12T09:05:05.514Z,175
2017-10-12T09:06:27.328Z,210
2017-10-12T09:07:48.867Z,215
2017-10-12T09:09:11.514Z,235
2017-10-12T09:10:34.033Z,205
2017-10-12T09:11:55.521Z,180
2017-10-12T09:13:17.349Z,220
2017-10-12T09:14:39.173Z,250
2017-10-12T09:16:01.378Z,265
2017-10-12T09:17:23.666Z,270
2017-10-12T09:18:46.268Z,255
2017-10-12T09:20:08.420Z,255
2017-10-12T09:21:30.396Z,260
2017-10-12T09:22:51.917Z,245
2017-10-12T09:24:14.264Z,240
2017-10-12T09:25:36.081Z,240
2017-10-12T09:26:57.559Z,215
2017-10-12T09:28:19.749Z,195
2017-10-12T09:29:40.888Z,195
2017-10-12T09:31:02.720Z,180
2017-10-12T09:32:24.514Z,215
2017-10-12T09:33:47.035Z,240
2017-10-12T09:35:09.194Z,230
2017-10-12T09:36:31.027Z,225
2017-10-12T09:37:53.120Z,240
2017-10-12T09:39:15.288Z,275
2017-10-12T09:40:37.452Z,245
2017-10-12T09:41:59.673Z,255
2017-10-12T09:43:22.138Z,275
2017-10-12T09:44:43.995Z,260
2017-10-12T09:46:06.520Z,220
2017-10-12T09:47:28.044Z,220
2017-10-12T09:48:50.239Z,200
2017-10-12T09:50:12.375Z,255
2017-10-12T09:51:34.544Z,220
2017-10-12T09:52:57.037Z,215
2017-10-12T09:54:19.211Z,265
2017-10-12T09:55:41.685Z,255
2017-10-12T09:57:04.161Z,260
2017-10-12T09:58:26.355Z,235
2017-10-12T09:59:48.522Z,260
2017-10-12T10:01:10.661Z,215
2017-10-12T10:02:32.821Z,270
2017-10-12T10:03:55.003Z,275
2017-10-12T10:05:16.534Z,260
2017-10-12T10:06:38.679Z,260
2017-10-12T10:08:00.844Z,240
2017-10-12T10:09:23.331Z,290
2017-10-12T10:10:44.842Z,270
2017-10-12T10:12:06.990Z,260
2017-10-12T10:13:29.132Z,230
2017-10-12T10:14:50.294Z,235
2017-10-12T10:16:12.561Z,240
2017-10-12T10:17:35.103Z,215
2017-10-12T10:18:56.919Z,230
2017-10-12T10:20:18.510Z,255
2017-10-12T10:21:40.649Z,260
2017-10-12T10:23:02.487Z,230
2017-10-12T10:24:24.306Z,240
2017-10-12T10:25:46.778Z,255
2017-10-12T10:27:09.381Z,270
2017-10-12T10:28:31.282Z,220
2017-10-12T10:29:53.110Z,250
2017-10-12T10:31:15.063Z,260
2017-10-12T10:32:37.541Z,225
2017-10-12T10:33:59.794Z,210
2017-10-12T10:35:21.941Z,245
2017-10-12T10:36:44.110Z,215
2017-10-12T10:38:05.612Z,215
2017-10-12T10:39:27.435Z,220
2017-10-12T10:40:49.905Z,240
2017-10-12T10:42:11.732Z,230
2017-10-12T10:43:34.575Z,225
2017-10-12T10:44:56.826Z,255
2017-10-12T10:46:18.883Z,275
2017-10-12T10:47:41.023Z,320
2017-10-12T10:49:02.489Z,305
2017-10-12T10:50:25.014Z,330
2017-10-12T10:51:46.872Z,270
2017-10-12T10:53:08.719Z,200
2017-10-12T10:54:30.977Z,210
2017-10-12T10:55:52.782Z,245
2017-10-12T10:57:14.932Z,265
2017-10-12T10:58:37.088Z,295
2017-10-12T10:59:59.233Z,260
2017-10-12T11:01:21.070Z,200
2017-10-12T11:02:43.357Z,175
2017-10-12T11:04:04.853Z,160
2017-10-12T11:05:26.992Z,190
2017-10-12T11:06:49.472Z,230
2017-10-12T11:08:11.612Z,285
2017-10-12T11:09:34.093Z,315
2017-10-12T11:10:56.219Z,325
2017-10-12T11:12:18.396Z,270
2017-10-12T11:13:40.577Z,225
2017-10-12T11:15:02.749Z,220
2017-10-12T11:16:24.631Z,225
2017-10-12T11:17:46.505Z,190
2017-10-12T11:19:08.326Z,215
2017-10-12T11:20:30.482Z,220
2017-10-12T11:21:52.612Z,255
2017-10-12T11:23:14.847Z,250
2017-10-12T11:24:37.016Z,250
2017-10-12T11:25:58.843Z,240
2017-10-12T11:27:20.988Z,220
2017-10-12T11:28:42.811Z,225
2017-10-12T11:30:04.983Z,215
2017-10-12T11:31:27.462Z,235
2017-10-12T11:32:48.929Z,230
2017-10-12T11:34:10.432Z,245
2017-10-12T11:35:31.921Z,265
2017-10-12T11:36:54.578Z,285
2017-10-12T11:38:16.056Z,250
2017-10-12T11:39:38.198Z,215
2017-10-12T11:41:00.616Z,230
2017-10-12T11:42:22.754Z,255
2017-10-12T11:43:45.227Z,245
2017-10-12T11:45:07.408Z,240
2017-10-12T11:46:29.906Z,220
2017-10-12T11:47:52.051Z,205
2017-10-12T11:49:13.928Z,215
2017-10-12T11:50:36.411Z,245
2017-10-12T11:51:58.563Z,275
2017-10-12T11:53:20.840Z,275
2017-10-12T11:54:43.333Z,275
2017-10-12T11:56:05.812Z,245
2017-10-12T11:57:27.288Z,225
2017-10-12T11:58:49.781Z,245
2017-10-12T12:00:12.242Z,300
2017-10-12T12:01:34.068Z,275
2017-10-12T12:02:56.531Z,230
2017-10-12T12:04:18.043Z,260
2017-10-12T12:05:40.218Z,225
2017-10-12T12:07:02.780Z,225
2017-10-12T12:08:24.991Z,215
2017-10-12T12:09:46.552Z,225
2017-10-12T12:11:09.098Z,225
2017-10-12T12:12:31.242Z,240
2017-10-12T12:13:53.747Z,250
2017-10-12T12:15:15.594Z,255
2017-10-12T12:16:37.428Z,260
2017-10-12T12:17:59.253Z,265
2017-10-12T12:19:21.161Z,285
2017-10-12T12:20:43.650Z,280
2017-10-12T12:22:06.274Z,265
2017-10-12T12:23:28.440Z,260
2017-10-12T12:24:50.599Z,200
2017-10-12T12:26:12.404Z,195
2017-10-12T12:27:34.578Z,200
2017-10-12T12:28:56.389Z,195
2017-10-12T12:30:18.259Z,175
2017-10-12T12:31:40.870Z,165
2017-10-12T12:33:03.352Z,170
2017-10-12T12:34:25.513Z,215
2017-10-12T12:35:47.352Z,205
2017-10-12T12:37:09.522Z,185
2017-10-12T12:38:31.349Z,180
2017-10-12T12:39:53.877Z,180
2017-10-12T12:41:16.114Z,165
2017-10-12T12:42:37.941Z,200
2017-10-12T12:44:00.245Z,215
2017-10-12T12:45:22.784Z,180
2017-10-12T12:46:45.256Z,170
2017-10-12T12:48:07.748Z,170
2017-10-12T12:49:29.951Z,175
2017-10-12T12:50:52.418Z,195
2017-10-12T12:52:13.956Z,190
2017-10-12T12:53:36.518Z,210
2017-10-12T12:54:58.695Z,220
2017-10-12T12:56:20.857Z,215
2017-10-12T12:57:42.696Z,215
2017-10-12T12:59:05.189Z,200
2017-10-12T13:00:26.997Z,195
2017-10-12T13:01:49.493Z,190
2017-10-12T13:03:11.801Z,185
2017-10-12T13:04:34.287Z,175
2017-10-12T13:05:56.606Z,165
2017-10-12T13:07:18.126Z,160
2017-10-12T13:08:40.280Z,165
2017-10-12T13:10:02.535Z,160
2017-10-12T13:11:24.030Z,160
2017-10-12T13:12:45.839Z,170
2017-10-12T13:14:07.438Z,200
2017-10-12T13:15:29.713Z,200
2017-10-12T13:16:51.601Z,200
2017-10-12T13:18:14.148Z,200
2017-10-12T13:19:36.655Z,220
2017-10-12T13:20:58.202Z,210
2017-10-12T13:22:20.075Z,215
2017-10-12T13:23:42.314Z,190
2017-10-12T13:25:04.915Z,200
2017-10-12T13:26:26.876Z,190
2017-10-12T13:27:48.846Z,200
2017-10-12T13:29:11.172Z,200
2017-10-12T13:30:33.752Z,175
2017-10-12T13:31:55.976Z,185
2017-10-12T13:33:18.486Z,185
2017-10-12T13:34:40.385Z,170
2017-10-12T13:36:02.609Z,170
2017-10-12T13:37:25.283Z,175
2017-10-12T13:38:47.484Z,180
2017-10-12T13:40:10.025Z,200
2017-10-12T13:41:32.256Z,200
2017-10-12T13:42:54.471Z,205
2017-10-12T13:44:16.707Z,220
2017-10-12T13:45:38.660Z,195
2017-10-12T13:47:00.601Z,175
2017-10-12T13:48:22.498Z,165
2017-10-12T13:49:45.183Z,160
2017-10-12T13:51:07.573Z,145
2017-10-12T13:52:29.884Z,150
2017-10-12T13:53:52.572Z,145
2017-10-12T13:55:15.298Z,145
2017-10-12T13:56:37.730Z,140
2017-10-12T13:58:00.256Z,145
2017-10-12T13:59:22.546Z,145
2017-10-12T14:00:45.776Z,150
2017-10-12T14:02:07.932Z,135
2017-10-12T14:03:30.044Z,130
2017-10-12T14:04:52.375Z,150
2017-10-12T14:06:14.930Z,125
2017-10-12T14:07:36.546Z,135
2017-10-12T14:08:58.306Z,135
2017-10-12T14:10:20.160Z,130
2017-10-12T14:11:42.042Z,120
2017-10-12T14:13:03.900Z,140
2017-10-12T14:14:26.485Z,140
2017-10-12T14:15:48.988Z,135
2017-10-12T14:17:11.185Z,135
2017-10-12T14:18:33.045Z,125
2017-10-12T14:19:55.314Z,120
2017-10-12T14:21:17.183Z,125
2017-10-12T14:22:39.453Z,125
2017-10-12T14:24:01.654Z,140
2017-10-12T14:25:23.850Z,135
2017-10-12T14:26:46.183Z,140
2017-10-12T14:28:08.797Z,135
2017-10-12T14:29:30.977Z,130
2017-10-12T14:30:52.181Z,125
2017-10-12T14:32:14.154Z,130
2017-10-12T14:33:36.344Z,125
2017-10-12T14:34:58.234Z,115
2017-10-12T14:36:20.710Z,115
2017-10-12T14:37:43.361Z,110
2017-10-12T14:39:05.875Z,105
2017-10-12T14:40:27.875Z,105
2017-10-12T14:41:50.476Z,100
2017-10-12T14:43:12.704Z,105
2017-10-12T14:44:35.335Z,105
2017-10-12T14:45:57.615Z,110
2017-10-12T14:47:19.834Z,115
2017-10-12T14:48:42.019Z,105
2017-10-12T14:50:04.223Z,90
2017-10-12T14:51:26.765Z,90
2017-10-12T14:52:48.976Z,90
2017-10-12T14:54:11.515Z,85
2017-10-12T14:55:33.364Z,85
2017-10-12T14:56:55.642Z,90
2017-10-12T14:58:18.254Z,85
2017-10-12T14:59:40.767Z,85
2017-10-12T15:01:17.171Z,80
2017-10-12T15:02:39.458Z,80
2017-10-12T15:04:01.675Z,80
2017-10-12T15:05:23.538Z,80
2017-10-12T15:06:45.416Z,75
2017-10-12T15:08:07.725Z,75
2017-10-12T15:09:29.283Z,75
2017-10-12T15:10:51.804Z,75
2017-10-12T15:12:14.021Z,75
2017-10-12T15:13:36.221Z,70
2017-10-12T15:14:58.506Z,70
2017-10-12T15:16:21.020Z,75
2017-10-12T15:17:43.677Z,75
2017-10-12T15:19:05.992Z,70
2017-10-12T15:20:28.541Z,70
2017-10-12T15:21:51.187Z,70
2017-10-12T15:23:13.505Z,70
2017-10-12T15:24:35.454Z,70
2017-10-12T15:25:57.650Z,65
2017-10-12T15:27:20.184Z,70
2017-10-12T15:28:42.395Z,70
2017-10-12T15:30:04.967Z,70
2017-10-12T15:31:27.514Z,70
2017-10-12T15:32:49.747Z,70
2017-10-12T15:34:12.274Z,70
2017-10-12T15:35:33.815Z,65
2017-10-12T15:36:56.015Z,70
2017-10-12T15:38:18.587Z,70
2017-10-12T15:39:40.873Z,65
2017-10-12T15:41:03.087Z,65
2017-10-12T15:42:25.720Z,60
2017-10-12T15:43:47.954Z,60
2017-10-12T15:45:09.493Z,55
2017-10-12T15:46:31.671Z,55
2017-10-12T15:47:53.890Z,50
2017-10-12T15:49:15.745Z,50
2017-10-12T15:50:38.027Z,50
2017-10-12T15:52:00.233Z,45
2017-10-12T15:53:22.085Z,45
2017-10-12T15:54:44.284Z,40
2017-10-12T15:56:06.975Z,40
2017-10-12T15:57:29.253Z,35
2017-10-12T15:58:51.118Z,35
2017-10-12T16:00:13.630Z,35
2017-10-12T16:01:35.831Z,35
2017-10-12T16:02:58.353Z,30
2017-10-12T16:04:20.980Z,30
2017-10-12T16:05:43.162Z,30
2017-10-12T16:07:05.333Z,25
2017-10-12T16:08:27.198Z,25
2017-10-12T16:09:49.395Z,25
2017-10-12T16:11:11.589Z,20
2017-10-12T16:12:34.130Z,20
2017-10-12T16:13:56.727Z,20
2017-10-12T16:15:19.238Z,20
2017-10-12T16:16:41.427Z,15
2017-10-12T16:18:03.977Z,15
2017-10-12T16:19:26.170Z,15
2017-10-12T16:20:48.414Z,15
2017-10-12T16:22:10.930Z,10
2017-10-12T16:23:33.460Z,10
2017-10-12T16:26:17.456Z,10
2017-10-12T16:27:39.279Z,10
2017-10-12T16:29:01.910Z,5
2017-10-12T16:30:24.529Z,5
2017-10-12T16:31:46.708Z,5
2017-10-12T16:33:39.234Z,5
2017-10-12T16:35:01.431Z,5
2017-10-12T16:36:23.725Z,5
2017-10-12T16:37:46.273Z,0
2017-10-12T16:39:08.464Z,0
2017-10-12T16:40:30.333Z,0
2017-10-12T16:41:52.181Z,0
2017-10-12T16:43:14.396Z,0
2017-10-12T16:44:36.896Z,0
2017-10-12T16:45:59.436Z,0
2017-10-12T16:47:21.678Z,0
2017-10-12T16:48:44.285Z,0
2017-10-12T16:50:06.612Z,0
2017-10-12T16:51:29.154Z,0
2017-10-12T16:54:13.527Z,0
2017-10-12T16:55:36.086Z,0
2017-10-12T16:56:58.646Z,0
2017-10-12T16:58:21.194Z,0
2017-10-12T16:59:43.165Z,0
2017-10-12T17:01:05.723Z,0
2017-10-12T17:02:28.083Z,0
2017-10-12T17:03:50.289Z,0
2017-10-12T17:05:12.594Z,0
2017-10-12T17:06:34.507Z,0
2017-10-12T17:07:56.693Z,0
2017-10-12T17:09:19.307Z,0
2017-10-12T17:10:41.809Z,0
2017-10-12T17:12:04.400Z,0
2017-10-12T17:13:27.001Z,0
2017-10-12T17:14:49.556Z,0
2017-10-12T17:16:12.133Z,0
2017-10-12T17:17:34.733Z,0
2017-10-12T17:18:56.998Z,0
2017-10-12T17:20:19.533Z,0
2017-10-12T17:21:41.856Z,0
2017-10-12T17:23:04.445Z,0
2017-10-12T17:24:26.318Z,0
2017-10-12T17:25:48.204Z,0
2017-10-12T17:27:10.456Z,0
2017-10-12T17:28:33.096Z,0
2017-10-12T17:29:54.965Z,0
2017-10-12T17:31:17.551Z,0
2017-10-12T17:32:40.116Z,0
2017-10-12T17:34:02.752Z,0
2017-10-12T17:35:25.348Z,0
2017-10-12T17:36:47.912Z,0
2017-10-12T17:38:10.115Z,0
2017-10-12T17:39:31.787Z,0
2017-10-12T17:40:54.317Z,0
2017-10-12T17:42:16.254Z,0
2017-10-12T17:43:38.936Z,0
2017-10-12T17:45:01.580Z,0
2017-10-12T17:46:23.837Z,0
2017-10-12T17:47:46.413Z,0
2017-10-12T17:49:08.605Z,0
2017-10-12T17:50:30.526Z,0
2017-10-12T17:51:53.176Z,0
2017-10-12T17:53:15.707Z,0
2017-10-12T17:55:08.260Z,0
2017-10-12T17:56:30.850Z,0
2017-10-12T17:57:53.519Z,0
2017-10-12T17:59:16.077Z,0
2017-10-12T18:00:38.444Z,0
2017-10-12T18:02:00.618Z,0
2017-10-12T18:03:22.543Z,0
2017-10-12T18:05:15.052Z,0
2017-10-12T18:06:37.637Z,0
2017-10-12T18:08:00.208Z,0
2017-10-12T18:09:22.987Z,0
2017-10-12T18:10:45.246Z,0
2017-10-12T18:12:37.571Z,0
2017-10-12T18:14:00.156Z,0
2017-10-12T18:15:22.024Z,0
2017-10-12T18:16:44.583Z,0
2017-10-12T18:18:07.155Z,0
2017-10-12T18:19:29.030Z,0
2017-10-12T18:20:51.567Z,0
2017-10-12T18:22:13.716Z,0
2017-10-12T18:23:36.329Z,0
2017-10-12T18:24:58.598Z,0
2017-10-12T18:26:21.143Z,0
2017-10-12T18:27:43.718Z,0
2017-10-12T18:29:06.036Z,0
2017-10-12T18:30:28.625Z,0
2017-10-12T18:31:50.847Z,0
2017-10-12T18:33:13.438Z,0
2017-10-12T18:34:35.661Z,0
2017-10-12T18:35:58.214Z,0
2017-10-12T18:37:20.173Z,0
2017-10-12T18:38:42.492Z,0
2017-10-12T18:40:05.062Z,0
2017-10-12T18:41:27.636Z,0
2017-10-12T18:42:50.257Z,0
2017-10-12T18:44:12.482Z,0
2017-10-12T18:45:35.058Z,0
2017-10-12T18:46:57.289Z,0
2017-10-12T18:48:19.878Z,0
2017-10-12T18:49:42.457Z,0
2017-10-12T18:51:04.859Z,0
2017-10-12T18:53:49.588Z,0
2017-10-12T18:55:12.163Z,0
2017-10-12T18:56:34.740Z,0
2017-10-12T18:57:57.305Z,0
2017-10-12T18:59:19.910Z,0
2017-10-12T19:00:42.612Z,0
2017-10-12T19:02:05.077Z,0
2017-10-12T19:03:27.616Z,0
2017-10-12T19:04:49.840Z,0
2017-10-12T19:06:12.406Z,0
2017-10-12T19:07:34.315Z,0
2017-10-12T19:08:56.635Z,0
2017-10-12T19:10:18.292Z,0
2017-10-12T19:11:40.876Z,0
2017-10-12T19:13:03.459Z,0
2017-10-12T19:14:25.687Z,0
2017-10-12T19:15:47.978Z,0
2017-10-12T19:17:10.634Z,0
2017-10-12T19:18:33.260Z,0
2017-10-12T19:19:59.633Z,0
2017-10-12T19:21:22.210Z,0
2017-10-12T19:22:44.438Z,0
2017-10-12T19:24:06.327Z,0
2017-10-12T19:26:51.408Z,0
2017-10-12T19:28:44.015Z,0
2017-10-12T19:30:06.322Z,0
2017-10-12T19:31:28.584Z,0
2017-10-12T19:32:50.802Z,0
2017-10-12T19:34:13.029Z,0
2017-10-12T19:35:35.584Z,0
2017-10-12T19:36:57.487Z,0
2017-10-12T19:38:20.101Z,0
2017-10-12T19:39:42.787Z,0
2017-10-12T19:41:35.259Z,0
2017-10-12T19:42:57.850Z,0